Time;durP1;ratioP1;P1;durP2;ratioP2;P2;SDS_P1;SDS_P2;PMS_P1;PMS_P2;Temp;Humidity;BMP_temperature;BMP_pressure;BME280_temperature;BME280_humidity;BME280_pressure;Samples;Min_cycle;Max_cycle;Signal;HPM_P1;HPM_P2
2022/07/26 00:01:52;;;;;;;20.45;5.40;;;20.70;99.90;;;;;;5033589;28;25077;-65
2022/07/26 00:04:18;;;;;;;19.02;3.88;;;20.70;99.90;;;;;;5037245;28;25123;-66
2022/07/26 00:06:43;;;;;;;18.60;3.83;;;20.70;99.90;;;;;;5026325;28;25076;-66
2022/07/26 00:09:09;;;;;;;16.85;3.72;;;20.60;99.90;;;;;;5024454;28;25168;-65
2022/07/26 00:11:35;;;;;;;17.77;4.43;;;20.50;99.90;;;;;;5032382;28;25118;-66
2022/07/26 00:14:03;;;;;;;18.27;3.85;;;20.50;99.90;;;;;;5030469;28;25067;-66
2022/07/26 00:16:28;;;;;;;19.33;3.83;;;20.50;99.90;;;;;;5025463;28;25072;-65
2022/07/26 00:18:55;;;;;;;20.05;4.47;;;20.60;99.90;;;;;;5024217;28;25114;-65
2022/07/26 00:21:20;;;;;;;16.95;5.15;;;20.50;99.90;;;;;;5026004;28;25064;-66
2022/07/26 00:23:46;;;;;;;16.52;3.75;;;20.50;99.90;;;;;;5026259;28;25129;-67
2022/07/26 00:26:12;;;;;;;16.45;3.40;;;20.50;99.90;;;;;;5024516;28;25065;-63
2022/07/26 00:28:40;;;;;;;13.65;3.33;;;20.50;99.90;;;;;;5026454;28;25097;-66
2022/07/26 00:31:06;;;;;;;18.52;3.90;;;20.30;99.90;;;;;;5026128;28;25055;-64
2022/07/26 00:33:32;;;;;;;11.23;2.60;;;20.30;99.90;;;;;;5025040;28;25059;-65
2022/07/26 00:35:57;;;;;;;13.30;3.05;;;20.30;99.90;;;;;;5025438;28;25069;-66
2022/07/26 00:38:23;;;;;;;7.82;2.22;;;20.20;99.90;;;;;;5016844;28;25050;-65
2022/07/26 00:40:49;;;;;;;6.00;2.00;;;20.30;99.90;;;;;;5027723;28;25136;-68
2022/07/26 00:43:15;;;;;;;7.55;2.35;;;20.20;99.90;;;;;;5021347;28;25071;-66
2022/07/26 00:45:40;;;;;;;8.32;2.40;;;20.10;99.90;;;;;;5021565;28;25137;-64
2022/07/26 00:48:06;;;;;;;6.32;2.10;;;20.10;99.90;;;;;;5029835;28;25101;-65
2022/07/26 00:50:32;;;;;;;7.47;2.28;;;20.20;99.90;;;;;;5025336;28;25052;-64
2022/07/26 00:52:57;;;;;;;11.93;2.38;;;20.20;99.90;;;;;;5025221;28;25146;-65
2022/07/26 00:55:23;;;;;;;4.43;2.10;;;20.10;99.90;;;;;;5024862;28;25078;-64
2022/07/26 00:57:49;;;;;;;10.80;1.83;;;20.10;99.90;;;;;;5022594;28;25109;-65
2022/07/26 01:00:20;;;;;;;6.05;1.60;;;20.00;99.90;;;;;;5026797;28;25126;-65
2022/07/26 01:02:46;;;;;;;6.18;1.80;;;20.10;99.90;;;;;;5026451;28;25096;-66
2022/07/26 01:05:12;;;;;;;6.03;1.75;;;20.10;99.90;;;;;;5018439;28;25092;-65
2022/07/26 01:07:39;;;;;;;6.72;2.25;;;20.00;99.90;;;;;;5031775;28;25067;-66
2022/07/26 01:10:11;;;;;;;9.50;2.13;;;20.00;99.90;;;;;;5023960;28;25072;-65
2022/07/26 01:12:37;;;;;;;3.92;1.98;;;20.00;99.90;;;;;;5027633;28;25071;-64
2022/07/26 01:15:03;;;;;;;5.28;1.70;;;19.90;99.90;;;;;;5025112;28;25079;-67
2022/07/26 01:17:29;;;;;;;4.90;1.80;;;20.00;99.90;;;;;;5023087;28;25086;-64
2022/07/26 01:19:54;;;;;;;9.40;2.28;;;20.00;99.90;;;;;;5026922;28;25087;-66
2022/07/26 01:22:20;;;;;;;6.43;2.00;;;19.80;99.90;;;;;;5021988;28;25054;-65
2022/07/26 01:24:46;;;;;;;5.13;1.98;;;19.80;99.90;;;;;;5030163;28;26180;-64
2022/07/26 01:27:12;;;;;;;4.15;1.92;;;19.80;99.90;;;;;;5019133;28;25077;-66
2022/07/26 01:29:37;;;;;;;12.57;1.83;;;19.80;99.90;;;;;;5025359;28;25078;-66
2022/07/26 01:32:04;;;;;;;6.03;2.35;;;19.70;99.90;;;;;;5029483;28;25135;-66
2022/07/26 01:34:29;;;;;;;5.72;2.15;;;19.60;99.90;;;;;;5023514;28;25087;-64
2022/07/26 01:36:55;;;;;;;7.72;2.45;;;19.70;99.90;;;;;;5024703;28;25080;-67
2022/07/26 01:39:21;;;;;;;5.47;2.08;;;19.60;99.90;;;;;;5016067;28;25072;-65
2022/07/26 01:41:47;;;;;;;10.63;2.10;;;19.60;99.90;;;;;;5020137;28;25152;-67
2022/07/26 01:44:12;;;;;;;7.38;2.80;;;19.60;99.90;;;;;;5011886;28;25052;-64
2022/07/26 01:46:38;;;;;;;6.70;1.83;;;19.50;99.90;;;;;;5008376;28;25069;-64
2022/07/26 01:49:05;;;;;;;13.30;2.78;;;19.50;99.90;;;;;;5011917;28;25060;-65
2022/07/26 01:51:31;;;;;;;8.35;2.88;;;19.40;99.90;;;;;;5015942;28;25168;-65
2022/07/26 01:53:57;;;;;;;9.63;2.75;;;19.40;99.90;;;;;;5009944;28;25086;-65
2022/07/26 01:56:22;;;;;;;7.28;2.25;;;19.30;99.90;;;;;;5021640;28;25055;-65
2022/07/26 01:58:49;;;;;;;5.95;2.40;;;19.30;99.90;;;;;;5025068;28;25085;-67
2022/07/26 02:01:14;;;;;;;8.82;2.38;;;19.30;99.90;;;;;;5019835;28;25089;-65
2022/07/26 02:03:40;;;;;;;7.97;2.72;;;19.30;99.90;;;;;;5023274;28;25103;-67
2022/07/26 02:06:06;;;;;;;12.98;2.40;;;19.30;99.90;;;;;;5023531;28;25058;-65
2022/07/26 02:08:32;;;;;;;7.45;2.22;;;19.30;99.90;;;;;;5016872;28;25074;-66
2022/07/26 02:11:00;;;;;;;11.57;2.78;;;19.30;99.90;;;;;;5023785;28;25062;-65
2022/07/26 02:13:33;;;;;;;5.55;2.63;;;19.30;99.90;;;;;;5018691;28;25149;-65
2022/07/26 02:15:59;;;;;;;5.65;2.42;;;19.30;99.90;;;;;;5021289;28;25067;-64
2022/07/26 02:18:26;;;;;;;4.90;2.05;;;19.40;99.90;;;;;;5025467;28;25066;-65
2022/07/26 02:20:52;;;;;;;12.45;3.08;;;19.30;99.90;;;;;;5020692;28;25063;-65
2022/07/26 02:23:18;;;;;;;11.40;2.38;;;19.20;99.90;;;;;;5023890;28;25064;-65
2022/07/26 02:25:44;;;;;;;6.38;2.40;;;19.20;99.90;;;;;;5024401;28;25089;-65
2022/07/26 02:28:10;;;;;;;8.02;2.53;;;19.30;99.90;;;;;;5027101;28;25103;-66
2022/07/26 02:30:37;;;;;;;8.43;2.50;;;19.30;99.90;;;;;;5033096;28;25054;-65
2022/07/26 02:33:02;;;;;;;9.43;2.20;;;19.30;99.90;;;;;;5029469;28;25059;-65
2022/07/26 02:35:30;;;;;;;8.48;2.40;;;19.20;99.90;;;;;;5017061;28;25064;-66
2022/07/26 02:38:03;;;;;;;3.72;2.08;;;19.20;99.90;;;;;;5024347;28;25149;-65
2022/07/26 02:40:30;;;;;;;12.02;2.22;;;19.10;99.90;;;;;;5017091;28;25124;-65
2022/07/26 02:42:55;;;;;;;15.73;2.97;;;19.00;99.90;;;;;;5023981;28;25055;-64
2022/07/26 02:45:21;;;;;;;9.82;2.55;;;19.10;99.90;;;;;;5025468;28;25054;-66
2022/07/26 02:47:51;;;;;;;10.90;2.55;;;19.10;99.90;;;;;;5030935;28;25150;-66
2022/07/26 02:50:18;;;;;;;7.10;2.85;;;19.20;99.90;;;;;;5028680;28;25093;-66
2022/07/26 02:52:46;;;;;;;9.10;1.90;;;19.30;99.90;;;;;;5022426;28;25059;-65
2022/07/26 02:55:13;;;;;;;6.95;2.78;;;19.20;99.90;;;;;;5025900;28;25139;-65
2022/07/26 02:57:39;;;;;;;7.53;3.00;;;19.20;99.90;;;;;;5029309;28;25149;-64
2022/07/26 03:00:06;;;;;;;10.73;2.85;;;19.20;99.90;;;;;;5031020;28;25091;-65
2022/07/26 03:02:31;;;;;;;11.27;2.78;;;19.20;99.90;;;;;;5031539;28;25106;-66
2022/07/26 03:04:57;;;;;;;10.65;2.25;;;19.10;99.90;;;;;;5030298;28;25154;-65
2022/07/26 03:07:23;;;;;;;9.25;2.83;;;19.10;99.90;;;;;;5030250;28;25064;-65
2022/07/26 03:09:48;;;;;;;10.52;2.90;;;19.10;99.90;;;;;;5035971;28;25087;-66
2022/07/26 03:12:14;;;;;;;8.90;2.65;;;19.10;99.90;;;;;;5038419;28;25155;-65
2022/07/26 03:14:39;;;;;;;8.85;2.88;;;19.10;99.90;;;;;;5025552;28;25045;-66
2022/07/26 03:17:05;;;;;;;10.77;2.78;;;19.20;99.90;;;;;;5021580;28;25151;-67
2022/07/26 03:19:30;;;;;;;11.32;2.55;;;19.20;99.90;;;;;;5031608;28;25133;-67
2022/07/26 03:21:56;;;;;;;7.90;2.47;;;19.10;99.90;;;;;;5031782;28;25163;-66
2022/07/26 03:24:21;;;;;;;8.07;2.70;;;18.90;99.90;;;;;;5026891;28;25071;-66
2022/07/26 03:26:47;;;;;;;14.40;2.63;;;18.90;99.90;;;;;;5027750;28;25078;-65
2022/07/26 03:29:12;;;;;;;11.45;3.30;;;19.00;99.90;;;;;;5026550;28;25077;-65
2022/07/26 03:31:38;;;;;;;11.63;3.25;;;19.00;99.90;;;;;;5027289;28;25101;-66
2022/07/26 03:34:03;;;;;;;14.60;3.65;;;18.90;99.90;;;;;;5024852;28;25123;-65
2022/07/26 03:36:29;;;;;;;11.07;2.72;;;18.90;99.90;;;;;;5025378;28;25062;-64
2022/07/26 03:38:55;;;;;;;10.02;3.15;;;18.90;99.90;;;;;;5025243;28;25051;-66
2022/07/26 03:41:20;;;;;;;13.63;3.88;;;18.80;99.90;;;;;;5024657;28;25145;-67
2022/07/26 03:43:46;;;;;;;11.10;3.63;;;18.80;99.90;;;;;;5026394;28;25111;-66
2022/07/26 03:46:11;;;;;;;9.20;2.60;;;18.80;99.90;;;;;;5033000;28;25135;-65
2022/07/26 03:48:37;;;;;;;11.18;2.58;;;18.80;99.90;;;;;;5028194;28;25105;-64
2022/07/26 03:51:02;;;;;;;16.50;4.03;;;18.80;99.90;;;;;;5026197;28;25098;-66
2022/07/26 03:53:28;;;;;;;11.25;2.70;;;18.80;99.90;;;;;;5021666;28;25095;-65
2022/07/26 03:58:38;;;;;;;11.82;2.90;;;18.90;99.90;;;;;;5028034;28;25119;-64
2022/07/26 04:01:03;;;;;;;15.52;3.95;;;18.90;99.90;;;;;;5036742;28;25092;-66
2022/07/26 04:03:29;;;;;;;10.75;2.90;;;18.80;99.90;;;;;;5032419;28;25459;-65
2022/07/26 04:05:54;;;;;;;6.00;2.78;;;18.80;99.90;;;;;;5022417;28;25087;-64
2022/07/26 04:08:20;;;;;;;9.35;2.97;;;18.70;99.90;;;;;;5026018;28;25130;-65
2022/07/26 04:10:49;;;;;;;12.15;3.83;;;18.70;99.90;;;;;;5030453;28;25068;-65
2022/07/26 04:13:16;;;;;;;9.45;3.08;;;18.80;99.90;;;;;;5026232;28;25124;-65
2022/07/26 04:15:41;;;;;;;8.48;2.83;;;18.70;99.90;;;;;;5026093;28;25112;-65
2022/07/26 04:18:07;;;;;;;12.88;3.35;;;18.80;99.90;;;;;;5025682;28;25183;-64
2022/07/26 04:20:32;;;;;;;11.50;3.35;;;18.80;99.90;;;;;;5027222;28;25083;-66
2022/07/26 04:22:58;;;;;;;10.13;3.08;;;18.80;99.90;;;;;;5028034;28;25058;-65
2022/07/26 04:25:24;;;;;;;11.98;3.00;;;18.70;99.90;;;;;;5024799;28;25078;-65
2022/07/26 04:27:49;;;;;;;12.45;3.05;;;18.80;99.90;;;;;;5028761;28;25102;-65
2022/07/26 04:30:15;;;;;;;8.13;3.10;;;18.80;99.90;;;;;;5025847;28;25128;-66
2022/07/26 04:32:41;;;;;;;13.13;3.50;;;18.70;99.90;;;;;;5031207;28;25058;-65
2022/07/26 04:35:07;;;;;;;12.82;3.03;;;18.70;99.90;;;;;;5029443;28;25074;-65
2022/07/26 04:37:41;;;;;;;10.32;3.42;;;18.70;99.90;;;;;;5027403;28;25080;-65
2022/07/26 04:40:08;;;;;;;9.93;3.13;;;18.80;99.90;;;;;;5024177;28;25154;-64
2022/07/26 04:42:34;;;;;;;11.50;3.00;;;18.70;99.90;;;;;;5029112;28;25160;-64
2022/07/26 04:44:59;;;;;;;10.57;3.70;;;18.70;99.90;;;;;;5024558;28;25158;-64
2022/07/26 04:47:25;;;;;;;13.00;3.50;;;18.70;99.90;;;;;;5028322;28;25081;-64
2022/07/26 04:49:51;;;;;;;12.98;3.42;;;18.70;99.90;;;;;;5026400;28;25153;-65
2022/07/26 04:52:16;;;;;;;13.93;3.10;;;18.80;99.90;;;;;;5026113;28;25144;-65
2022/07/26 04:54:42;;;;;;;15.13;3.90;;;18.80;99.90;;;;;;5026958;28;25080;-64
2022/07/26 04:57:07;;;;;;;10.30;2.78;;;18.80;99.90;;;;;;5028889;28;25173;-65
2022/07/26 04:59:33;;;;;;;10.02;3.30;;;18.80;99.90;;;;;;5027833;28;25068;-66
2022/07/26 05:01:58;;;;;;;9.68;3.38;;;18.90;99.90;;;;;;5025411;28;25067;-65
2022/07/26 05:04:25;;;;;;;7.50;3.30;;;18.90;99.90;;;;;;5025019;28;25182;-66
2022/07/26 05:06:50;;;;;;;9.57;3.00;;;18.90;99.90;;;;;;5034153;28;25071;-64
2022/07/26 05:09:16;;;;;;;20.75;3.63;;;18.80;99.90;;;;;;5030881;28;25088;-65
2022/07/26 05:11:41;;;;;;;8.70;3.13;;;19.00;99.90;;;;;;5022432;28;25097;-64
2022/07/26 05:14:07;;;;;;;11.57;3.63;;;19.00;99.90;;;;;;5025547;28;25071;-66
2022/07/26 05:16:32;;;;;;;12.23;3.25;;;19.00;99.90;;;;;;5025943;28;25087;-65
2022/07/26 05:18:58;;;;;;;6.78;3.28;;;19.10;99.90;;;;;;5024953;28;25123;-65
2022/07/26 05:21:24;;;;;;;9.95;3.47;;;19.20;99.90;;;;;;5018047;28;25059;-65
2022/07/26 05:23:49;;;;;;;12.98;3.70;;;19.20;99.90;;;;;;5019534;28;25122;-65
2022/07/26 05:26:15;;;;;;;15.98;4.28;;;19.20;99.90;;;;;;5015821;28;25075;-65
2022/07/26 05:28:40;;;;;;;13.73;4.70;;;19.20;99.90;;;;;;5017322;28;25064;-65
2022/07/26 05:31:06;;;;;;;9.30;3.45;;;19.20;99.90;;;;;;5010194;28;25065;-65
2022/07/26 05:33:31;;;;;;;13.73;4.15;;;19.30;99.90;;;;;;5014398;28;25110;-66
2022/07/26 05:35:57;;;;;;;11.88;4.03;;;19.40;99.90;;;;;;5017903;28;25060;-66
2022/07/26 05:38:24;;;;;;;10.50;3.88;;;19.40;99.90;;;;;;5024482;28;25068;-65
2022/07/26 05:40:50;;;;;;;14.70;3.90;;;19.20;99.90;;;;;;5028780;28;25046;-65
2022/07/26 05:43:15;;;;;;;10.60;3.45;;;19.20;99.90;;;;;;5017064;28;25131;-64
2022/07/26 05:45:41;;;;;;;15.65;3.47;;;19.20;99.90;;;;;;5028449;28;25057;-66
2022/07/26 05:48:06;;;;;;;13.90;3.92;;;19.20;99.90;;;;;;5025181;28;25054;-66
2022/07/26 05:50:32;;;;;;;14.38;3.50;;;19.20;99.90;;;;;;5020579;28;25060;-64
2022/07/26 05:52:58;;;;;;;13.10;3.42;;;19.20;99.90;;;;;;5028588;28;25059;-66
2022/07/26 05:55:23;;;;;;;8.55;2.97;;;19.30;99.90;;;;;;5026717;28;25056;-65
2022/07/26 05:57:49;;;;;;;10.35;2.70;;;19.30;99.90;;;;;;5014887;28;25071;-67
2022/07/26 06:00:15;;;;;;;8.15;1.45;;;19.20;99.90;;;;;;5017985;28;25070;-68
2022/07/26 06:02:40;;;;;;;7.43;1.83;;;19.00;99.90;;;;;;5026523;28;25070;-66
2022/07/26 06:05:07;;;;;;;2.17;1.27;;;19.00;99.90;;;;;;5020334;28;25042;-67
2022/07/26 06:07:33;;;;;;;3.28;1.58;;;18.80;99.90;;;;;;5017978;28;25101;-67
2022/07/26 06:09:59;;;;;;;2.90;1.15;;;18.90;99.90;;;;;;5025704;28;25104;-66
2022/07/26 06:12:24;;;;;;;5.15;1.33;;;19.10;99.90;;;;;;5023969;28;25100;-67
2022/07/26 06:14:50;;;;;;;2.25;1.30;;;19.30;99.90;;;;;;5024526;28;25077;-65
2022/07/26 06:17:16;;;;;;;3.75;1.30;;;19.40;99.90;;;;;;5025997;28;25064;-65
2022/07/26 06:19:42;;;;;;;2.08;1.00;;;19.20;99.90;;;;;;5027141;28;25088;-68
2022/07/26 06:22:07;;;;;;;2.05;0.98;;;19.20;99.90;;;;;;5031913;28;25062;-66
2022/07/26 06:24:33;;;;;;;2.97;1.10;;;19.10;99.90;;;;;;5023858;28;25107;-65
2022/07/26 06:26:59;;;;;;;1.95;0.95;;;19.00;99.90;;;;;;5025786;28;25073;-66
2022/07/26 06:29:24;;;;;;;6.28;1.25;;;18.80;99.90;;;;;;5023869;28;25140;-66
2022/07/26 06:31:50;;;;;;;2.38;0.75;;;18.90;99.90;;;;;;5021365;28;25081;-67
2022/07/26 06:34:16;;;;;;;1.52;0.90;;;18.80;99.90;;;;;;5029500;28;25068;-67
2022/07/26 06:36:41;;;;;;;4.97;1.27;;;18.70;99.90;;;;;;5025160;28;25106;-64
2022/07/26 06:39:08;;;;;;;3.08;1.40;;;18.90;99.90;;;;;;5026023;28;25073;-66
2022/07/26 06:41:33;;;;;;;2.60;1.10;;;18.90;99.90;;;;;;5024708;28;25113;-66
2022/07/26 06:43:59;;;;;;;9.02;2.17;;;18.90;99.90;;;;;;5019073;28;25153;-66
2022/07/26 06:46:24;;;;;;;3.95;1.45;;;19.00;99.90;;;;;;5023600;28;25108;-66
2022/07/26 06:48:50;;;;;;;6.60;2.00;;;19.10;99.90;;;;;;5020652;28;25060;-65
2022/07/26 06:51:15;;;;;;;5.20;1.60;;;19.10;99.90;;;;;;5016167;28;25095;-64
2022/07/26 06:53:41;;;;;;;8.45;2.00;;;19.00;99.90;;;;;;5023884;28;25071;-64
2022/07/26 06:56:07;;;;;;;14.07;3.15;;;19.10;99.90;;;;;;5022246;28;25103;-66
2022/07/26 06:58:32;;;;;;;11.30;2.30;;;19.00;99.90;;;;;;5020264;28;25082;-64
2022/07/26 07:00:58;;;;;;;8.70;2.40;;;19.00;99.90;;;;;;5025384;28;25045;-65
2022/07/26 07:03:24;;;;;;;7.45;1.83;;;19.30;99.90;;;;;;5035169;28;25123;-66
2022/07/26 07:05:50;;;;;;;7.13;1.90;;;19.50;99.90;;;;;;5034785;28;25113;-66
2022/07/26 07:08:16;;;;;;;13.48;2.53;;;19.60;99.90;;;;;;5025226;28;25103;-66
2022/07/26 07:10:41;;;;;;;6.65;1.95;;;19.60;99.90;;;;;;5022644;28;25073;-65
2022/07/26 07:13:07;;;;;;;8.75;2.47;;;19.70;99.90;;;;;;5021771;28;25147;-65
2022/07/26 07:15:32;;;;;;;7.32;2.10;;;19.60;99.90;;;;;;5021327;28;25073;-64
2022/07/26 07:17:58;;;;;;;10.93;1.92;;;19.50;99.90;;;;;;5018063;28;25124;-65
2022/07/26 07:20:24;;;;;;;13.00;2.60;;;19.40;99.90;;;;;;5020001;28;25153;-66
2022/07/26 07:22:50;;;;;;;10.02;2.22;;;19.60;99.90;;;;;;5013902;28;25064;-67
2022/07/26 07:25:15;;;;;;;6.60;2.08;;;19.50;99.90;;;;;;5016860;28;25143;-65
2022/07/26 07:27:41;;;;;;;8.45;2.10;;;19.60;99.90;;;;;;5016163;28;25160;-63
2022/07/26 07:30:09;;;;;;;6.43;2.03;;;19.80;99.90;;;;;;5016066;28;25069;-66
2022/07/26 07:32:35;;;;;;;6.43;2.28;;;19.80;99.90;;;;;;5019170;28;25080;-65
2022/07/26 07:35:01;;;;;;;5.22;2.45;;;19.50;99.90;;;;;;5037097;28;25058;-65
2022/07/26 07:37:26;;;;;;;9.60;2.20;;;19.50;99.90;;;;;;5031797;28;25074;-66
2022/07/26 07:39:52;;;;;;;8.25;2.15;;;19.60;99.90;;;;;;5029306;28;25058;-65
2022/07/26 07:42:18;;;;;;;5.20;1.50;;;19.80;99.90;;;;;;5025592;28;25073;-64
2022/07/26 07:44:43;;;;;;;5.15;1.63;;;20.00;99.90;;;;;;5033665;28;25053;-64
2022/07/26 07:47:09;;;;;;;6.30;1.55;;;20.00;99.90;;;;;;5031312;28;25165;-65
2022/07/26 07:49:35;;;;;;;11.80;2.15;;;19.90;99.90;;;;;;5033404;28;25073;-65
2022/07/26 07:52:01;;;;;;;8.13;1.88;;;20.00;99.90;;;;;;5027526;28;25138;-65
2022/07/26 07:54:26;;;;;;;10.38;2.30;;;20.00;99.90;;;;;;5021410;28;25100;-67
2022/07/26 07:56:55;;;;;;;7.97;2.25;;;20.00;99.90;;;;;;5022779;28;25113;-68
2022/07/26 07:59:21;;;;;;;7.63;1.77;;;19.70;99.90;;;;;;5013584;28;25070;-68
2022/07/26 08:01:46;;;;;;;9.93;1.80;;;19.70;99.90;;;;;;5014827;28;25065;-66
2022/07/26 08:04:12;;;;;;;7.28;2.10;;;20.00;99.90;;;;;;5034880;28;25081;-66
2022/07/26 08:06:37;;;;;;;9.32;1.88;;;20.00;99.90;;;;;;5030420;28;25071;-66
2022/07/26 08:09:03;;;;;;;7.68;1.75;;;19.90;99.90;;;;;;5029013;28;25149;-65
2022/07/26 08:11:29;;;;;;;11.85;2.17;;;19.80;99.90;;;;;;5031918;28;25057;-65
2022/07/26 08:13:55;;;;;;;5.65;1.55;;;19.60;99.90;;;;;;5044238;28;25108;-66
2022/07/26 08:16:20;;;;;;;6.80;2.08;;;19.80;99.90;;;;;;5038106;28;25080;-67
2022/07/26 08:18:46;;;;;;;5.28;1.85;;;19.70;99.90;;;;;;5023905;28;25059;-67
2022/07/26 08:21:11;;;;;;;10.55;2.10;;;19.40;99.90;;;;;;5026162;28;25086;-67
2022/07/26 08:23:37;;;;;;;7.93;1.77;;;19.50;99.90;;;;;;5020349;28;25165;-67
2022/07/26 08:26:02;;;;;;;12.38;2.33;;;19.40;99.90;;;;;;5029009;28;25140;-68
2022/07/26 08:28:28;;;;;;;7.97;2.13;;;19.30;99.90;;;;;;5016057;28;25077;-67
2022/07/26 08:30:54;;;;;;;11.10;1.75;;;19.30;99.90;;;;;;5023428;28;25063;-67
2022/07/26 08:33:20;;;;;;;9.00;1.98;;;19.20;99.90;;;;;;5030021;28;25065;-67
2022/07/26 08:35:45;;;;;;;7.18;1.60;;;19.00;99.90;;;;;;5033015;28;25087;-66
2022/07/26 08:38:11;;;;;;;6.65;2.15;;;19.00;99.90;;;;;;5026554;28;25073;-66
2022/07/26 08:40:36;;;;;;;11.18;2.80;;;18.90;99.90;;;;;;5028302;28;25090;-65
2022/07/26 08:43:02;;;;;;;7.25;1.40;;;18.60;99.90;;;;;;5023968;28;25085;-67
2022/07/26 08:45:30;;;;;;;6.35;1.35;;;18.40;99.90;;;;;;5029049;28;25058;-68
2022/07/26 08:47:56;;;;;;;5.75;1.73;;;18.40;99.90;;;;;;5025586;28;25065;-68
2022/07/26 08:50:23;;;;;;;4.47;1.35;;;18.60;99.90;;;;;;5029668;28;25063;-68
2022/07/26 08:52:50;;;;;;;5.40;1.85;;;18.70;99.90;;;;;;5027343;28;25062;-66
2022/07/26 08:55:20;;;;;;;5.68;1.80;;;18.80;99.90;;;;;;5034447;28;25064;-67
2022/07/26 08:57:46;;;;;;;10.23;1.90;;;18.90;99.90;;;;;;5032064;28;25062;-66
2022/07/26 09:00:20;;;;;;;9.95;2.63;;;19.30;99.90;;;;;;5028122;28;25052;-68
2022/07/26 09:02:46;;;;;;;5.65;2.65;;;19.10;99.90;;;;;;5028899;28;25062;-67
2022/07/26 09:05:12;;;;;;;7.28;2.83;;;19.10;99.90;;;;;;5035673;28;25056;-68
2022/07/26 09:07:38;;;;;;;7.53;2.60;;;19.10;99.90;;;;;;5025873;28;25082;-68
2022/07/26 09:10:06;;;;;;;10.90;2.55;;;19.30;99.90;;;;;;5026051;28;25073;-69
2022/07/26 09:12:32;;;;;;;7.85;1.85;;;19.20;99.90;;;;;;5035405;28;25147;-66
2022/07/26 09:14:58;;;;;;;9.18;1.75;;;19.10;99.90;;;;;;5028254;28;25070;-67
2022/07/26 09:17:44;;;;;;;5.55;1.50;;;19.00;99.90;;;;;;5028137;28;25077;-65
2022/07/26 09:20:16;;;;;;;9.70;1.98;;;18.80;99.90;;;;;;5024750;28;25110;-68
2022/07/26 09:23:03;;;;;;;11.52;2.20;;;18.60;99.90;;;;;;5025416;28;25142;-68
2022/07/26 09:25:41;;;;;;;3.90;1.25;;;18.70;99.90;;;;;;5032950;28;25133;-66
2022/07/26 09:28:23;;;;;;;7.95;2.10;;;18.80;99.90;;;;;;5022793;28;25123;-68
2022/07/26 09:30:54;;;;;;;10.65;1.88;;;18.70;99.90;;;;;;5024584;28;25117;-65
2022/07/26 09:33:19;;;;;;;11.55;2.30;;;18.60;99.90;;;;;;5030520;28;25146;-68
2022/07/26 09:36:08;;;;;;;5.60;1.60;;;18.70;99.90;;;;;;5026600;28;25158;-68
2022/07/26 09:38:43;;;;;;;9.93;1.95;;;18.80;99.90;;;;;;5024245;28;25054;-67
2022/07/26 09:41:28;;;;;;;6.85;1.83;;;19.10;99.90;;;;;;5023476;28;25050;-67
2022/07/26 09:43:55;;;;;;;8.73;2.30;;;19.20;99.90;;;;;;5016854;28;25245;-68
2022/07/26 09:46:24;;;;;;;7.93;2.10;;;19.20;99.90;;;;;;5024972;28;25079;-67
2022/07/26 09:48:51;;;;;;;9.82;1.95;;;19.30;99.90;;;;;;5046147;28;25072;-68
2022/07/26 09:51:38;;;;;;;4.53;1.70;;;19.30;99.90;;;;;;5025120;28;25064;-67
2022/07/26 09:54:04;;;;;;;7.95;1.70;;;19.50;99.90;;;;;;5033664;28;25063;-68
2022/07/26 09:56:50;;;;;;;4.65;1.38;;;19.70;99.90;;;;;;5022898;28;25050;-67
2022/07/26 09:59:18;;;;;;;8.05;1.65;;;19.70;99.90;;;;;;5024912;28;25086;-67
2022/07/26 10:01:44;;;;;;;7.50;2.00;;;19.80;99.90;;;;;;5027645;28;25103;-69
2022/07/26 10:04:10;;;;;;;5.65;1.40;;;19.60;99.90;;;;;;5021751;28;25137;-67
2022/07/26 10:06:36;;;;;;;5.05;1.35;;;19.40;99.90;;;;;;5024777;28;25054;-66
2022/07/26 10:09:02;;;;;;;4.63;1.40;;;19.00;99.90;;;;;;5024671;28;25088;-69
2022/07/26 10:11:35;;;;;;;4.35;1.27;;;18.80;99.90;;;;;;5028135;28;25130;-64
2022/07/26 10:14:33;;;;;;;8.82;1.23;;;18.70;99.90;;;;;;5032718;28;25071;-66
2022/07/26 10:17:00;;;;;;;7.45;1.05;;;18.50;99.90;;;;;;5025334;28;25076;-66
2022/07/26 10:19:54;;;;;;;3.13;0.90;;;18.70;99.90;;;;;;5022879;28;25063;-66
2022/07/26 10:22:29;;;;;;;5.53;1.30;;;18.70;99.90;;;;;;5030826;28;25066;-68
2022/07/26 10:25:14;;;;;;;7.80;1.70;;;18.70;99.90;;;;;;5030390;28;25051;-66
2022/07/26 10:27:42;;;;;;;7.43;1.58;;;18.70;99.90;;;;;;5027143;28;25050;-65
2022/07/26 10:30:21;;;;;;;7.15;1.25;;;18.80;99.90;;;;;;5046750;28;25062;-64
2022/07/26 10:32:57;;;;;;;5.68;1.27;;;18.80;99.90;;;;;;5044316;28;25070;-66
2022/07/26 10:35:42;;;;;;;5.30;1.15;;;18.90;99.90;;;;;;5022728;28;25135;-66
2022/07/26 10:38:11;;;;;;;6.20;1.20;;;18.80;99.90;;;;;;5021405;28;25084;-66
2022/07/26 10:40:53;;;;;;;6.97;1.13;;;18.90;99.90;;;;;;5026002;28;25057;-67
2022/07/26 10:43:19;;;;;;;5.50;1.30;;;18.90;99.90;;;;;;5023820;28;25060;-66
2022/07/26 10:45:44;;;;;;;7.03;1.42;;;18.90;99.90;;;;;;5025197;28;25063;-64
2022/07/26 10:48:18;;;;;;;8.57;1.55;;;18.60;99.90;;;;;;5028023;28;25106;-65
2022/07/26 10:50:49;;;;;;;7.15;1.00;;;18.40;99.90;;;;;;5021260;28;25082;-68
2022/07/26 10:53:22;;;;;;;6.82;1.25;;;18.50;99.90;;;;;;5027970;28;25205;-67
2022/07/26 10:55:56;;;;;;;5.53;1.08;;;18.70;99.90;;;;;;5020406;28;25143;-67
2022/07/26 10:58:23;;;;;;;6.30;2.00;;;18.70;99.90;;;;;;5022467;28;25067;-65
2022/07/26 11:01:03;;;;;;;8.02;1.20;;;18.70;99.90;;;;;;5026991;28;25057;-67
2022/07/26 11:03:40;;;;;;;5.30;1.30;;;18.70;99.90;;;;;;5024487;28;25063;-66
2022/07/26 11:06:12;;;;;;;10.52;1.65;;;18.90;99.90;;;;;;5025703;28;25124;-65
2022/07/26 11:08:38;;;;;;;;;;;18.90;99.90;;;;;;5031102;28;25069;-66
2022/07/26 11:11:04;;;;;;;8.90;1.65;;;19.00;99.90;;;;;;5033586;28;25090;-70
2022/07/26 11:13:32;;;;;;;10.02;1.40;;;19.00;99.90;;;;;;5031654;28;25066;-67
2022/07/26 11:16:05;;;;;;;6.05;1.30;;;18.90;99.90;;;;;;5028358;28;25120;-68
2022/07/26 11:18:36;;;;;;;6.43;1.48;;;18.90;99.90;;;;;;5018150;28;25091;-65
2022/07/26 11:21:10;;;;;;;9.05;1.90;;;19.00;99.90;;;;;;5023648;28;25153;-67
2022/07/26 11:23:37;;;;;;;8.60;1.75;;;19.00;99.90;;;;;;5028787;28;25094;-68
2022/07/26 11:26:09;;;;;;;4.75;0.95;;;19.10;99.90;;;;;;5028805;28;25072;-68
2022/07/26 11:29:04;;;;;;;4.93;1.15;;;19.10;99.90;;;;;;5027079;28;25092;-65
2022/07/26 11:31:37;;;;;;;5.82;1.30;;;19.10;99.90;;;;;;5024587;28;25144;-66
2022/07/26 11:34:04;;;;;;;2.53;1.17;;;19.30;99.90;;;;;;5026508;28;25054;-66
2022/07/26 11:36:32;;;;;;;3.53;1.05;;;19.50;99.90;;;;;;5036208;28;25067;-65
2022/07/26 11:38:58;;;;;;;5.32;1.20;;;19.70;99.90;;;;;;5029959;28;25107;-67
2022/07/26 11:41:25;;;;;;;4.80;1.08;;;19.60;99.90;;;;;;5029709;28;25092;-65
2022/07/26 11:43:52;;;;;;;4.30;1.20;;;19.40;99.90;;;;;;5025909;28;25112;-64
2022/07/26 11:46:19;;;;;;;7.13;1.25;;;19.40;99.90;;;;;;5032574;28;25140;-68
2022/07/26 11:48:49;;;;;;;5.97;1.23;;;19.50;99.90;;;;;;5032174;28;25093;-66
2022/07/26 11:51:20;;;;;;;4.90;1.00;;;19.70;99.90;;;;;;5038948;28;25065;-68
2022/07/26 11:53:47;;;;;;;5.05;1.10;;;20.00;99.90;;;;;;5029643;28;25078;-65
2022/07/26 11:56:19;;;;;;;4.88;1.27;;;20.20;99.90;;;;;;5026394;28;25081;-66
2022/07/26 11:58:49;;;;;;;7.68;1.30;;;19.70;99.90;;;;;;5029782;28;25073;-66
2022/07/26 12:01:21;;;;;;;4.18;1.08;;;19.50;99.90;;;;;;5042018;28;25073;-67
2022/07/26 12:03:48;;;;;;;2.85;1.20;;;19.80;99.90;;;;;;5036713;28;25088;-66
2022/07/26 12:06:17;;;;;;;5.97;1.15;;;19.80;99.90;;;;;;5038444;28;25078;-65
2022/07/26 12:08:48;;;;;;;3.40;0.80;;;19.60;99.90;;;;;;5037884;28;25105;-65
2022/07/26 12:11:15;;;;;;;5.45;0.80;;;19.50;99.90;;;;;;5030920;28;25069;-67
2022/07/26 12:13:47;;;;;;;4.07;0.73;;;19.50;99.90;;;;;;5046764;28;25084;-65
2022/07/26 12:16:32;;;;;;;2.55;1.00;;;19.30;99.90;;;;;;5034158;28;25078;-64
2022/07/26 12:18:57;;;;;;;4.25;0.73;;;19.20;99.90;;;;;;5029035;28;25138;-66
2022/07/26 12:21:37;;;;;;;2.83;1.00;;;19.40;99.90;;;;;;5028403;28;25047;-65
2022/07/26 12:24:03;;;;;;;4.68;1.15;;;19.50;99.90;;;;;;5033494;28;25144;-67
2022/07/26 12:26:29;;;;;;;6.32;1.10;;;19.80;99.90;;;;;;5028384;28;25046;-63
2022/07/26 12:28:56;;;;;;;7.30;1.23;;;19.90;99.90;;;;;;5036016;28;25122;-66
2022/07/26 12:31:30;;;;;;;5.28;1.17;;;19.90;99.90;;;;;;5034177;28;25060;-66
2022/07/26 12:33:56;;;;;;;8.05;2.25;;;20.20;99.90;;;;;;5028992;28;25104;-65
2022/07/26 12:36:23;;;;;;;7.97;1.70;;;19.90;99.90;;;;;;5025076;28;25137;-65
2022/07/26 12:38:51;;;;;;;6.95;1.50;;;19.60;99.90;;;;;;5027429;28;25060;-65
2022/07/26 12:41:37;;;;;;;5.40;1.75;;;19.60;99.90;;;;;;5022007;28;25158;-66
2022/07/26 12:44:04;;;;;;;8.15;1.45;;;19.60;99.90;;;;;;5019783;28;25544;-66
2022/07/26 12:46:34;;;;;;;6.45;1.20;;;19.70;99.90;;;;;;5024516;28;25097;-65
2022/07/26 12:49:00;;;;;;;12.32;1.88;;;19.80;99.90;;;;;;5027748;28;25056;-67